SVA827 WIII-OEJN
Flight info
| Callsign | SVA827 |
|---|---|
| Flight time | N/A |
| Altitude | 34000 |
| Route | RIMTI M766 KAT P570 BASUR/N0487F360 P570 TVM UL425 ASPUX DCT GOBRO/N0439F280 L425 AMBIT/N0478F380 L425 BOSUT |
| Aircraft | B77W/H-SDE1E2E3FGHIJ2J3J4J5M1RWXY/LB1D1 |
Departure
| Time | 2026-05-06 18:47 |
|---|---|
| Airport | Soekarno-Hatta International Airport (WIII) |
Arrival
| Time | N/A |
|---|---|
| Airport | King Abdulaziz International Airport (OEJN) |
| Time | Latitude | Longitude | Altitude | Speed | Heading |
|---|---|---|---|---|---|
| 2026-05-06 18:23 | -6.11607 | 106.66823 | 36 ft | 0 kts | 158° |
| 2026-05-06 18:39 | -6.11600 | 106.66820 | 36 ft | 2 kts | 158° |
| 2026-05-06 18:40 | -6.11562 | 106.66805 | 32 ft | 3 kts | 158° |
| 2026-05-06 18:40 | -6.11545 | 106.66799 | 32 ft | 3 kts | 150° |
| 2026-05-06 18:40 | -6.11532 | 106.66790 | 34 ft | 3 kts | 124° |
| 2026-05-06 18:40 | -6.11526 | 106.66778 | 31 ft | 3 kts | 93° |
| 2026-05-06 18:41 | -6.11527 | 106.66760 | 32 ft | 3 kts | 74° |
| 2026-05-06 18:41 | -6.11532 | 106.66743 | 35 ft | 2 kts | 69° |
| 2026-05-06 18:41 | -6.11533 | 106.66740 | 35 ft | 0 kts | 69° |
| 2026-05-06 18:42 | -6.11524 | 106.66765 | 34 ft | 8 kts | 69° |
| 2026-05-06 18:43 | -6.11500 | 106.66823 | 36 ft | 9 kts | 67° |
| 2026-05-06 18:43 | -6.11477 | 106.66881 | 35 ft | 9 kts | 68° |
| 2026-05-06 18:43 | -6.11438 | 106.66935 | 35 ft | 13 kts | 27° |
| 2026-05-06 18:43 | -6.11359 | 106.66923 | 35 ft | 11 kts | 337° |
| 2026-05-06 18:44 | -6.11286 | 106.66894 | 35 ft | 11 kts | 338° |
| 2026-05-06 18:44 | -6.11218 | 106.66878 | 35 ft | 10 kts | 10° |
| 2026-05-06 18:44 | -6.11171 | 106.66931 | 35 ft | 11 kts | 63° |
| 2026-05-06 18:44 | -6.11126 | 106.66997 | 34 ft | 11 kts | 38° |
| 2026-05-06 18:45 | -6.11053 | 106.67001 | 34 ft | 11 kts | 330° |
| 2026-05-06 18:45 | -6.10984 | 106.66962 | 34 ft | 11 kts | 333° |
| 2026-05-06 18:45 | -6.10932 | 106.66904 | 33 ft | 11 kts | 309° |
| 2026-05-06 18:45 | -6.10913 | 106.66853 | 33 ft | 8 kts | 264° |
| 2026-05-06 18:46 | -6.10919 | 106.66834 | 33 ft | 0 kts | 249° |
| 2026-05-06 18:46 | -6.10920 | 106.66830 | 33 ft | 6 kts | 249° |
| 2026-05-06 18:46 | -6.11023 | 106.66564 | 35 ft | 78 kts | 248° |
| 2026-05-06 18:46 | -6.11315 | 106.65833 | 37 ft | 146 kts | 248° |
| 2026-05-06 18:47 | -6.11762 | 106.64711 | 48 ft | 195 kts | 248° |
| 2026-05-06 18:47 | -6.12223 | 106.63491 | 798 ft | 179 kts | 249° |
| 2026-05-06 18:47 | -6.12672 | 106.62288 | 1261 ft | 191 kts | 255° |
| 2026-05-06 18:47 | -6.12642 | 106.60886 | 1363 ft | 216 kts | 290° |
| 2026-05-06 18:48 | -6.12004 | 106.59549 | 1907 ft | 213 kts | 297° |
| 2026-05-06 18:48 | -6.11380 | 106.58110 | 2051 ft | 235 kts | 292° |
| 2026-05-06 18:48 | -6.10768 | 106.56514 | 2186 ft | 260 kts | 291° |
| 2026-05-06 18:48 | -6.10140 | 106.54765 | 2608 ft | 272 kts | 290° |
| 2026-05-06 18:49 | -6.09508 | 106.52945 | 3148 ft | 280 kts | 290° |
| 2026-05-06 18:49 | -6.08866 | 106.51071 | 3765 ft | 284 kts | 290° |
| 2026-05-06 18:49 | -6.08185 | 106.49216 | 4463 ft | 281 kts | 300° |
| 2026-05-06 18:49 | -6.06922 | 106.47749 | 4981 ft | 279 kts | 328° |
| 2026-05-06 18:50 | -6.05279 | 106.46714 | 5535 ft | 281 kts | 330° |
| 2026-05-06 18:50 | -6.03604 | 106.45674 | 6198 ft | 283 kts | 330° |
| 2026-05-06 18:50 | -6.01927 | 106.44633 | 6818 ft | 284 kts | 330° |
| 2026-05-06 18:50 | -6.00236 | 106.43582 | 7412 ft | 287 kts | 330° |
| 2026-05-06 18:51 | -5.98531 | 106.42521 | 8002 ft | 290 kts | 330° |
| 2026-05-06 18:51 | -5.96813 | 106.41450 | 8567 ft | 293 kts | 330° |
| 2026-05-06 18:51 | -5.95072 | 106.40363 | 9152 ft | 295 kts | 330° |
| 2026-05-06 18:51 | -5.93322 | 106.39269 | 9745 ft | 298 kts | 330° |
| 2026-05-06 18:52 | -5.91545 | 106.38158 | 10177 ft | 306 kts | 330° |
| 2026-05-06 18:52 | -5.89680 | 106.36992 | 10315 ft | 326 kts | 330° |
| 2026-05-06 18:52 | -5.87698 | 106.35753 | 10460 ft | 346 kts | 329° |
| 2026-05-06 18:52 | -5.85622 | 106.34454 | 10601 ft | 365 kts | 329° |
| 2026-05-06 18:53 | -5.83413 | 106.33069 | 10825 ft | 381 kts | 329° |
| 2026-05-06 18:53 | -5.81130 | 106.31638 | 11257 ft | 391 kts | 329° |
| 2026-05-06 18:53 | -5.78801 | 106.30178 | 11812 ft | 398 kts | 329° |
| 2026-05-06 18:53 | -5.76439 | 106.28700 | 12496 ft | 401 kts | 329° |
| 2026-05-06 18:54 | -5.74185 | 106.27064 | 13044 ft | 406 kts | 316° |
| 2026-05-06 18:54 | -5.72552 | 106.24726 | 13534 ft | 412 kts | 296° |
| 2026-05-06 18:54 | -5.71333 | 106.22098 | 13993 ft | 418 kts | 296° |
| 2026-05-06 18:54 | -5.70076 | 106.19448 | 14599 ft | 421 kts | 296° |
| 2026-05-06 18:55 | -5.68798 | 106.16797 | 15267 ft | 422 kts | 296° |
| 2026-05-06 18:55 | -5.67507 | 106.14143 | 15881 ft | 425 kts | 296° |
| 2026-05-06 18:55 | -5.66215 | 106.11501 | 16463 ft | 428 kts | 296° |
| 2026-05-06 18:55 | -5.64895 | 106.08806 | 17051 ft | 432 kts | 297° |
| 2026-05-06 18:56 | -5.63562 | 106.06090 | 17631 ft | 435 kts | 297° |
| 2026-05-06 18:56 | -5.62220 | 106.03355 | 18206 ft | 438 kts | 297° |
| 2026-05-06 18:56 | -5.60869 | 106.00602 | 18716 ft | 441 kts | 297° |
| 2026-05-06 18:56 | -5.60411 | 105.99669 | 18866 ft | 442 kts | 297° |